createdAt,value
2018-03-27T00:00:03.376Z,76.12
2018-03-27T00:05:02.969Z,0
2018-03-27T00:10:03.176Z,0
2018-03-27T00:15:03.170Z,27.96
2018-03-27T00:20:03.191Z,0
2018-03-27T00:25:03.220Z,0
2018-03-27T00:30:03.178Z,0
2018-03-27T00:35:03.294Z,7.29
2018-03-27T00:40:03.321Z,46.9
2018-03-27T00:45:03.293Z,0
2018-03-27T00:50:03.444Z,0
2018-03-27T00:55:03.357Z,73.24
2018-03-27T01:00:03.372Z,0
2018-03-27T01:05:03.302Z,0
2018-03-27T01:10:03.401Z,99.99
2018-03-27T01:15:03.400Z,0
2018-03-27T01:20:03.449Z,48.01
2018-03-27T01:25:03.420Z,93.46
2018-03-27T01:30:03.334Z,0
2018-03-27T01:35:03.377Z,0
2018-03-27T01:40:03.424Z,0
2018-03-27T01:45:03.421Z,0
2018-03-27T01:50:03.397Z,0
2018-03-27T01:55:03.403Z,76.23
2018-03-27T02:00:03.427Z,0
2018-03-27T02:05:03.438Z,57.67
2018-03-27T02:10:03.436Z,0
2018-03-27T02:15:03.374Z,0
2018-03-27T02:20:03.409Z,0
2018-03-27T02:25:03.292Z,17.61
2018-03-27T02:30:03.322Z,62.02
2018-03-27T02:35:03.291Z,12.59
2018-03-27T02:40:03.274Z,16.66
2018-03-27T02:45:03.175Z,26.51
2018-03-27T02:50:03.050Z,26.42
2018-03-27T02:55:02.985Z,0
2018-03-27T03:00:03.203Z,0
2018-03-27T03:05:03.423Z,0
2018-03-27T03:10:03.528Z,61.36
2018-03-27T03:15:03.518Z,37.5
2018-03-27T03:20:03.722Z,35.03
2018-03-27T03:25:03.779Z,27.83
2018-03-27T03:30:03.772Z,0
2018-03-27T03:35:03.722Z,65.21
2018-03-27T03:40:03.796Z,0
2018-03-27T03:45:03.767Z,0
2018-03-27T03:50:02.796Z,59.38
2018-03-27T03:55:03.743Z,48.58
2018-03-27T04:00:03.895Z,24.81
2018-03-27T04:05:02.872Z,0
2018-03-27T04:10:02.857Z,2.55
2018-03-27T04:15:02.898Z,29.45
2018-03-27T04:20:02.980Z,64.2
2018-03-27T04:25:02.981Z,43.46
2018-03-27T04:30:03.434Z,14.96
2018-03-27T04:35:03.482Z,0
2018-03-27T04:40:03.517Z,1.79
2018-03-27T04:45:03.460Z,67.52
2018-03-27T04:50:03.461Z,0
2018-03-27T04:55:03.420Z,56.51
2018-03-27T05:00:03.373Z,0
2018-03-27T05:05:03.385Z,19.31
2018-03-27T05:10:03.425Z,47.13
2018-03-27T05:15:03.429Z,41.83
2018-03-27T05:20:03.405Z,51.01
2018-03-27T05:25:03.343Z,64.07
2018-03-27T05:30:03.309Z,45.9
2018-03-27T05:35:03.296Z,29.62
2018-03-27T05:40:03.337Z,2.65
2018-03-27T05:45:03.276Z,0
2018-03-27T05:50:03.328Z,0
2018-03-27T05:55:03.366Z,41.83
2018-03-27T06:00:03.678Z,44.96
2018-03-27T06:05:04.034Z,19.78
2018-03-27T06:10:03.163Z,35.02
2018-03-27T06:15:03.126Z,22.82
2018-03-27T06:20:03.141Z,0
2018-03-27T06:25:03.095Z,35.89
2018-03-27T06:30:03.100Z,0
2018-03-27T06:35:03.080Z,0
2018-03-27T06:40:03.107Z,62.5
2018-03-27T06:45:03.115Z,62.88
2018-03-27T06:50:03.186Z,29.64
2018-03-27T06:55:03.185Z,60.51
2018-03-27T07:00:03.482Z,36.74
2018-03-27T07:05:03.715Z,0
2018-03-27T07:10:02.915Z,50.4
2018-03-27T07:15:03.039Z,21.6
2018-03-27T07:20:03.062Z,0
2018-03-27T07:25:03.006Z,13.07
2018-03-27T07:30:03.155Z,15.34
2018-03-27T07:35:03.201Z,24.82
2018-03-27T07:40:03.264Z,62.91
2018-03-27T07:45:03.170Z,29.19
2018-03-27T07:50:03.332Z,0
2018-03-27T07:55:03.286Z,89.67
2018-03-27T08:00:03.207Z,39.95
2018-03-27T08:05:03.207Z,57.09
2018-03-27T08:10:03.217Z,0
2018-03-27T08:15:03.372Z,15.78
2018-03-27T08:20:03.659Z,20.17
2018-03-27T08:25:03.728Z,34.24
2018-03-27T08:30:03.641Z,37.69
2018-03-27T08:35:03.682Z,33.99
2018-03-27T08:40:03.715Z,65.99
2018-03-27T08:45:03.699Z,60.37
2018-03-27T08:50:03.785Z,57.99
2018-03-27T08:55:03.718Z,66.97
2018-03-27T09:00:03.728Z,71.17
2018-03-27T09:05:03.722Z,80.35
2018-03-27T09:10:03.797Z,99.99
2018-03-27T09:15:03.770Z,97.8
2018-03-27T09:20:03.761Z,99.99
2018-03-27T09:25:03.784Z,99.99
2018-03-27T09:30:03.771Z,99.99
2018-03-27T09:35:02.790Z,99.99
2018-03-27T09:40:02.825Z,99.99
2018-03-27T09:45:02.883Z,99.99
2018-03-27T09:50:02.896Z,99.99
2018-03-27T09:55:02.820Z,99.99
2018-03-27T10:00:02.864Z,99.99
2018-03-27T10:05:02.948Z,99.99
2018-03-27T10:10:03.015Z,99.99
2018-03-27T10:15:03.124Z,99.99
2018-03-27T10:20:03.079Z,99.99
2018-03-27T10:25:03.089Z,99.99
2018-03-27T10:30:03.113Z,99.99
2018-03-27T10:35:03.109Z,99.99
2018-03-27T10:40:03.218Z,91.41
2018-03-27T10:45:03.193Z,90.6
2018-03-27T10:50:03.280Z,85.36
2018-03-27T10:55:03.291Z,86.79
2018-03-27T11:00:03.352Z,89.55
2018-03-27T11:05:03.413Z,89.07
2018-03-27T11:10:03.850Z,78.56
2018-03-27T11:15:02.825Z,77.13
2018-03-27T11:20:02.894Z,78.56
2018-03-27T11:25:02.835Z,81.32
2018-03-27T11:30:02.911Z,79.99
2018-03-27T11:35:03.056Z,79.89
2018-03-27T11:40:03.102Z,80.27
2018-03-27T11:45:03.149Z,81.13
2018-03-27T11:50:03.108Z,82.27
2018-03-27T11:55:03.229Z,82.75
2018-03-27T12:00:03.144Z,80.75
2018-03-27T12:05:03.083Z,79.03
2018-03-27T12:10:03.087Z,80.18
2018-03-27T12:15:03.007Z,81.36
2018-03-27T12:20:03.183Z,79.22
2018-03-27T12:25:03.104Z,79.51
2018-03-27T12:30:03.067Z,79.41
2018-03-27T12:35:03.096Z,78.94
2018-03-27T12:40:02.853Z,77.8
2018-03-27T12:45:03.393Z,80.55
2018-03-27T12:50:03.101Z,79.89
2018-03-27T12:55:03.668Z,80.65
2018-03-27T13:00:03.212Z,80.75
2018-03-27T13:05:02.863Z,81.79
2018-03-27T13:10:03.662Z,82.08
2018-03-27T13:15:03.233Z,82.37
2018-03-27T13:20:03.006Z,82.27
2018-03-27T13:25:03.663Z,82.46
2018-03-27T13:30:03.322Z,82.69
2018-03-27T13:35:02.837Z,83.8
2018-03-27T13:40:03.446Z,84.65
2018-03-27T13:45:03.092Z,91.22
2018-03-27T13:50:03.680Z,95.41
2018-03-27T13:55:03.217Z,99.99
2018-03-27T14:00:03.715Z,99.99
2018-03-27T14:05:03.313Z,99.99
2018-03-27T14:10:02.931Z,99.99
2018-03-27T14:15:03.880Z,99.99
2018-03-27T14:20:03.469Z,99.99
2018-03-27T14:25:03.083Z,99.99
2018-03-27T14:30:03.719Z,99.99
2018-03-27T14:35:03.562Z,99.99
2018-03-27T14:40:03.181Z,99.99
2018-03-27T14:45:03.668Z,99.99
2018-03-27T14:50:03.286Z,99.99
2018-03-27T14:55:02.960Z,99.99
2018-03-27T15:00:03.590Z,99.99
2018-03-27T15:05:03.293Z,98.08
2018-03-27T15:10:03.005Z,86.99
2018-03-27T15:15:03.676Z,82.15
2018-03-27T15:20:03.201Z,75.59
2018-03-27T15:25:03.771Z,69.79
2018-03-27T15:30:03.339Z,61.04
2018-03-27T15:35:03.118Z,55.81
2018-03-27T15:40:03.711Z,48.11
2018-03-27T15:45:03.214Z,42.86
2018-03-27T15:50:02.830Z,35.83
2018-03-27T15:55:03.368Z,35.92
2018-03-27T16:00:03.021Z,32.03
2018-03-27T16:05:03.703Z,29.27
2018-03-27T16:10:03.278Z,29.17
2018-03-27T16:15:02.819Z,24.71
2018-03-27T16:20:03.464Z,24.04
2018-03-27T16:25:03.107Z,22.71
2018-03-27T16:30:03.680Z,18.43
2018-03-27T16:35:03.265Z,17.1
2018-03-27T16:40:02.895Z,15.58
2018-03-27T16:45:03.428Z,11.4
2018-03-27T16:50:03.063Z,9.31
2018-03-27T16:55:03.691Z,6.93
2018-03-27T17:00:03.293Z,4.65
2018-03-27T17:05:02.892Z,0.66
2018-03-27T17:10:03.534Z,0.47
2018-03-27T17:15:03.096Z,0
2018-03-27T17:20:03.732Z,0
2018-03-27T17:25:03.319Z,0
2018-03-27T17:30:02.935Z,99.99
2018-03-27T17:35:03.502Z,0
2018-03-27T17:40:03.108Z,0
2018-03-27T17:45:03.680Z,89.67
2018-03-27T17:50:03.276Z,0
2018-03-27T17:55:02.830Z,0
2018-03-27T18:00:03.423Z,0
2018-03-27T18:05:03.125Z,0
2018-03-27T18:10:03.740Z,25.84
2018-03-27T18:15:03.339Z,0
2018-03-27T18:20:02.995Z,0
2018-03-27T18:25:03.631Z,29.62
2018-03-27T18:30:03.231Z,0
2018-03-27T18:35:02.851Z,0
2018-03-27T18:40:03.524Z,0
2018-03-27T18:45:03.135Z,0
2018-03-27T18:50:03.683Z,0
2018-03-27T18:55:03.239Z,0
2018-03-27T19:00:02.894Z,38.16
2018-03-27T19:05:03.481Z,5.51
2018-03-27T19:10:03.171Z,87.82
2018-03-27T19:15:03.704Z,0
2018-03-27T19:20:03.407Z,0
2018-03-27T19:25:02.962Z,0
2018-03-27T19:30:03.583Z,0
2018-03-27T19:35:03.223Z,92.56
2018-03-27T19:40:02.842Z,95.12
2018-03-27T19:45:03.451Z,0
2018-03-27T19:50:03.004Z,82.88
2018-03-27T19:55:03.660Z,62.56
2018-03-27T20:00:03.527Z,48.99
2018-03-27T20:05:03.152Z,0
2018-03-27T20:10:02.835Z,12.91
2018-03-27T20:15:03.494Z,35.69
2018-03-27T20:20:03.155Z,0
2018-03-27T20:25:03.718Z,51.45
2018-03-27T20:30:03.347Z,76.9
2018-03-27T20:35:03.041Z,27.62
2018-03-27T20:40:03.634Z,0
2018-03-27T20:45:03.141Z,22.88
2018-03-27T20:50:03.750Z,10.35
2018-03-27T20:55:03.358Z,36.83
2018-03-27T21:00:02.923Z,11.3
2018-03-27T21:05:03.542Z,0
2018-03-27T21:10:03.170Z,0
2018-03-27T21:15:03.739Z,33.51
2018-03-27T21:20:03.425Z,0
2018-03-27T21:25:03.015Z,71.96
2018-03-27T21:30:03.613Z,0
2018-03-27T21:35:03.299Z,0
2018-03-27T21:40:02.984Z,0
2018-03-27T21:45:03.560Z,0
2018-03-27T21:50:03.060Z,16.61
2018-03-27T21:55:03.653Z,8.92
2018-03-27T22:00:03.260Z,0
2018-03-27T22:05:02.846Z,47.85
2018-03-27T22:10:03.502Z,46.04
2018-03-27T22:15:03.112Z,3.03
2018-03-27T22:20:02.872Z,0
2018-03-27T22:25:03.460Z,0
2018-03-27T22:30:03.000Z,0
2018-03-27T22:35:03.612Z,0
2018-03-27T22:40:03.337Z,35.69
2018-03-27T22:45:02.858Z,54.78
2018-03-27T22:50:03.528Z,0
2018-03-27T22:55:03.202Z,0
2018-03-27T23:00:05.570Z,42.34
2018-03-27T23:05:03.426Z,15.85
2018-03-27T23:10:03.077Z,0
2018-03-27T23:15:03.736Z,15.19
2018-03-27T23:20:03.428Z,0
2018-03-27T23:25:02.963Z,11.49
2018-03-27T23:30:03.539Z,16.8
2018-03-27T23:35:03.175Z,0
2018-03-27T23:40:03.786Z,0
2018-03-27T23:45:03.417Z,43.29
2018-03-27T23:50:03.060Z,0
2018-03-27T23:55:03.617Z,42.34
